Time;durP1;ratioP1;P1;durP2;ratioP2;P2;SDS_P1;SDS_P2;PMS_P1;PMS_P2;Temp;Humidity;BMP_temperature;BMP_pressure;BME280_temperature;BME280_humidity;BME280_pressure;Samples;Min_cycle;Max_cycle;Signal;HPM_P1;HPM_P2
2023/10/21 04:31:46;;;;;;;;;0.00;0.00;;;;;21.85;45.63;98579.91;1417415;26;46068;-72
2023/10/21 04:34:12;;;;;;;;;0.00;0.00;;;;;21.73;45.69;98584.16;5017672;28;46855;-73
2023/10/21 04:36:38;;;;;;;;;0.00;0.00;;;;;21.71;46.17;98578.03;5017722;28;45266;-74
2023/10/21 04:39:03;;;;;;;;;0.00;0.00;;;;;21.92;45.61;98583.53;5017696;28;45629;-72
2023/10/21 04:41:29;;;;;;;;;0.00;0.00;;;;;22.01;45.39;98589.72;5015858;28;46835;-73
2023/10/21 04:43:55;;;;;;;;;0.00;0.00;;;;;21.79;45.64;98594.28;5017527;28;45368;-74
2023/10/21 04:46:20;;;;;;;;;0.00;0.00;;;;;21.93;45.87;98608.94;5017129;28;46567;-75
2023/10/21 04:48:45;;;;;;;;;0.75;0.00;;;;;21.98;45.37;98614.66;5017397;28;45364;-75
2023/10/21 04:51:11;;;;;;;;;0.25;0.00;;;;;21.88;46.05;98596.69;5017046;28;48570;-74
2023/10/21 04:53:37;;;;;;;;;0.00;0.00;;;;;22.12;45.30;98592.75;5017521;28;45396;-75
2023/10/21 04:56:03;;;;;;;;;0.25;0.00;;;;;22.22;45.16;98612.38;5017487;28;45519;-73
2023/10/21 04:58:28;;;;;;;;;0.00;0.00;;;;;22.02;45.48;98619.56;5017198;28;45309;-73
2023/10/21 05:00:53;;;;;;;;;3.00;0.00;;;;;22.09;45.35;98623.19;5016573;28;46331;-73
2023/10/21 05:03:19;;;;;;;;;1.00;0.00;;;;;21.96;45.79;98646.72;5026737;28;45477;-73
2023/10/21 05:05:45;;;;;;;;;0.00;0.00;;;;;21.98;45.54;98625.56;5020887;28;45261;-73
2023/10/21 05:08:11;;;;;;;;;0.50;0.00;;;;;21.99;45.61;98630.00;4989044;28;45891;-77
2023/10/21 05:10:36;;;;;;;;;0.00;0.00;;;;;21.86;45.86;98652.50;5030459;28;46342;-74
2023/10/21 05:13:01;;;;;;;;;2.00;1.00;;;;;21.78;46.00;98628.06;5017331;28;45443;-74
2023/10/21 05:15:27;;;;;;;;;0.00;0.00;;;;;21.76;46.50;98643.78;5016727;28;45562;-72
2023/10/21 05:17:52;;;;;;;;;1.00;0.00;;;;;21.72;46.22;98639.75;5016779;28;45324;-74
2023/10/21 05:20:17;;;;;;;;;1.00;0.00;;;;;21.95;46.18;98654.06;5016830;28;45313;-72
2023/10/21 05:22:43;;;;;;;;;2.00;2.00;;;;;22.18;45.34;98646.56;5016947;28;45225;-73
2023/10/21 05:25:11;;;;;;;;;0.00;0.00;;;;;22.09;45.80;98664.13;5016800;28;45320;-73
2023/10/21 05:27:36;;;;;;;;;0.00;0.00;;;;;22.06;45.83;98656.31;4998718;28;45577;-72
2023/10/21 05:30:03;;;;;;;;;2.00;0.00;;;;;21.71;46.62;98658.00;5015662;28;46027;-72
2023/10/21 05:32:28;;;;;;;;;0.00;0.00;;;;;21.59;46.23;98666.88;5016350;28;45398;-72
2023/10/21 05:34:53;;;;;;;;;1.75;0.00;;;;;21.80;46.38;98662.28;5016580;28;45410;-71
2023/10/21 05:37:19;;;;;;;;;3.00;0.00;;;;;21.68;46.34;98657.53;5016721;28;45485;-73
2023/10/21 05:39:44;;;;;;;;;0.00;0.00;;;;;21.45;47.00;98661.22;5016461;28;45979;-72
2023/10/21 05:42:09;;;;;;;;;0.00;0.00;;;;;21.84;46.12;98674.53;5016524;28;45230;-73
2023/10/21 05:44:35;;;;;;;;;0.00;0.00;;;;;21.76;46.30;98680.09;5016374;28;45370;-72
2023/10/21 05:47:00;;;;;;;;;2.00;0.50;;;;;21.81;46.12;98668.59;5016376;28;45561;-72
2023/10/21 05:49:26;;;;;;;;;2.00;0.25;;;;;21.70;46.63;98682.72;5016102;28;45429;-71
2023/10/21 05:51:51;;;;;;;;;1.00;0.00;;;;;21.48;46.64;98679.94;5016472;28;45179;-70
2023/10/21 05:54:16;;;;;;;;;1.00;1.00;;;;;21.27;46.99;98684.47;5016524;28;45391;-72
2023/10/21 05:56:42;;;;;;;;;3.00;0.00;;;;;21.67;46.41;98683.97;5016234;28;45498;-71
2023/10/21 05:59:07;;;;;;;;;0.50;0.50;;;;;21.49;46.09;98687.09;5016161;28;45376;-74
2023/10/21 06:01:32;;;;;;;;;2.50;1.00;;;;;21.42;47.16;98680.72;5015798;28;45250;-71
2023/10/21 06:03:58;;;;;;;;;0.75;0.75;;;;;21.67;46.57;98689.44;5029529;28;45282;-72
2023/10/21 06:06:23;;;;;;;;;1.00;1.00;;;;;21.77;46.25;98695.44;5015375;28;45472;-74
